createdAt,value
2017-07-17T00:04:02.902Z,19.02
2017-07-17T00:08:59.558Z,18.80
2017-07-17T00:13:54.929Z,18.84
2017-07-17T00:18:51.833Z,18.75
2017-07-17T00:23:48.730Z,18.77
2017-07-17T00:28:44.157Z,18.74
2017-07-17T00:33:40.345Z,18.90
2017-07-17T00:38:36.356Z,18.98
2017-07-17T00:43:32.644Z,18.92
2017-07-17T00:48:28.491Z,18.71
2017-07-17T00:53:24.255Z,18.49
2017-07-17T00:58:19.950Z,18.44
2017-07-17T01:03:16.217Z,18.50
2017-07-17T01:08:11.998Z,18.40
2017-07-17T01:13:07.721Z,18.41
2017-07-17T01:18:04.602Z,18.43
2017-07-17T01:23:01.228Z,18.44
2017-07-17T01:27:58.100Z,18.50
2017-07-17T01:32:53.618Z,18.41
2017-07-17T01:37:50.516Z,18.38
2017-07-17T01:42:47.137Z,18.40
2017-07-17T01:47:44.017Z,18.37
2017-07-17T01:52:40.749Z,18.37
2017-07-17T01:57:36.428Z,18.29
2017-07-17T02:02:33.469Z,18.20
2017-07-17T02:07:28.807Z,18.28
2017-07-17T02:12:24.673Z,18.40
2017-07-17T02:17:20.679Z,18.37
2017-07-17T02:22:16.699Z,18.41
2017-07-17T02:27:12.926Z,18.45
2017-07-17T02:32:09.765Z,18.45
2017-07-17T02:37:06.556Z,18.44
2017-07-17T02:42:03.362Z,18.44
2017-07-17T02:46:58.955Z,18.44
2017-07-17T02:51:55.841Z,18.38
2017-07-17T02:56:51.452Z,18.26
2017-07-17T03:01:48.586Z,18.23
2017-07-17T03:06:45.012Z,18.15
2017-07-17T03:11:40.863Z,18.01
2017-07-17T03:16:37.597Z,17.95
2017-07-17T03:21:33.582Z,17.98
2017-07-17T03:26:29.312Z,17.76
2017-07-17T03:31:26.147Z,17.74
2017-07-17T03:36:22.870Z,17.83
2017-07-17T03:41:19.531Z,17.82
2017-07-17T03:46:16.208Z,17.83
2017-07-17T03:51:11.713Z,17.76
2017-07-17T03:56:07.779Z,17.74
2017-07-17T04:01:05.558Z,17.68
2017-07-17T04:06:02.087Z,17.60
2017-07-17T04:10:57.715Z,17.52
2017-07-17T04:15:54.496Z,17.54
2017-07-17T04:20:51.585Z,17.49
2017-07-17T04:25:47.308Z,17.24
2017-07-17T04:30:42.743Z,17.38
2017-07-17T04:35:38.947Z,17.41
2017-07-17T04:40:35.954Z,17.42
2017-07-17T04:45:32.702Z,17.48
2017-07-17T04:50:29.493Z,17.46
2017-07-17T04:55:26.161Z,17.38
2017-07-17T05:00:21.779Z,17.45
2017-07-17T05:05:18.601Z,17.60
2017-07-17T05:10:14.796Z,18.01
2017-07-17T05:15:12.203Z,18.13
2017-07-17T05:20:08.995Z,18.28
2017-07-17T05:25:07.682Z,18.34
2017-07-17T05:30:03.740Z,18.04
2017-07-17T05:34:59.135Z,17.57
2017-07-17T05:39:56.288Z,17.42
2017-07-17T05:44:51.827Z,17.64
2017-07-17T05:49:48.058Z,17.60
2017-07-17T05:54:44.312Z,17.80
2017-07-17T05:59:41.528Z,18.60
2017-07-17T06:04:38.722Z,18.96
2017-07-17T06:09:34.366Z,18.74
2017-07-17T06:14:31.729Z,18.43
2017-07-17T06:19:28.349Z,18.44
2017-07-17T06:24:23.922Z,18.53
2017-07-17T06:29:19.981Z,18.81
2017-07-17T06:34:16.023Z,18.95
2017-07-17T06:39:12.865Z,18.88
2017-07-17T06:44:08.025Z,18.71
2017-07-17T06:49:04.525Z,18.40
2017-07-17T06:53:59.930Z,18.29
2017-07-17T06:58:55.851Z,18.55
2017-07-17T07:03:52.645Z,18.19
2017-07-17T07:08:48.612Z,18.45
2017-07-17T07:13:45.832Z,18.73
2017-07-17T07:18:41.873Z,18.92
2017-07-17T07:23:38.405Z,18.65
2017-07-17T07:28:34.212Z,18.74
2017-07-17T07:33:31.680Z,18.68
2017-07-17T07:38:28.062Z,18.90
2017-07-17T07:43:25.092Z,18.95
2017-07-17T07:48:21.181Z,18.90
2017-07-17T07:53:16.935Z,18.43
2017-07-17T07:58:13.315Z,19.11
2017-07-17T08:03:12.979Z,20.50
2017-07-17T08:08:13.155Z,20.19
2017-07-17T08:13:10.877Z,20.24
2017-07-17T08:18:07.375Z,20.65
2017-07-17T08:23:03.593Z,20.44
2017-07-17T08:27:59.390Z,20.80
2017-07-17T08:32:55.667Z,20.25
2017-07-17T08:37:50.341Z,20.72
2017-07-17T08:42:50.610Z,21.24
2017-07-17T08:47:47.672Z,21.20
2017-07-17T08:52:43.211Z,21.80
2017-07-17T08:57:41.339Z,22.32
2017-07-17T09:02:39.866Z,22.53
2017-07-17T09:07:35.059Z,21.42
2017-07-17T09:12:37.012Z,21.21
2017-07-17T09:17:34.078Z,21.32
2017-07-17T09:22:33.984Z,21.25
2017-07-17T09:27:29.497Z,21.99
2017-07-17T09:32:26.190Z,21.80
2017-07-17T09:37:23.911Z,22.47
2017-07-17T09:42:21.917Z,22.81
2017-07-17T09:47:18.112Z,23.27
2017-07-17T09:52:14.927Z,23.80
2017-07-17T09:57:12.692Z,22.48
2017-07-17T10:02:07.930Z,22.04
2017-07-17T10:07:05.264Z,23.31
2017-07-17T10:12:02.631Z,23.15
2017-07-17T10:16:57.977Z,21.77
2017-07-17T10:21:54.210Z,22.25
2017-07-17T10:26:51.779Z,23.65
2017-07-17T10:31:49.742Z,24.17
2017-07-17T10:36:47.225Z,24.10
2017-07-17T10:41:45.217Z,24.03
2017-07-17T10:46:42.147Z,24.03
2017-07-17T10:51:39.038Z,24.05
2017-07-17T10:56:35.426Z,24.81
2017-07-17T11:01:32.326Z,23.51
2017-07-17T11:06:29.086Z,23.28
2017-07-17T11:11:23.754Z,23.10
2017-07-17T11:16:20.607Z,23.83
2017-07-17T11:21:17.092Z,22.76
2017-07-17T11:26:12.799Z,23.32
2017-07-17T11:31:10.512Z,23.74
2017-07-17T11:36:07.667Z,23.91
2017-07-17T11:41:06.725Z,24.28
2017-07-17T11:56:14.127Z,24.29
2017-07-17T12:01:10.493Z,24.53
2017-07-17T12:06:06.141Z,25.17
2017-07-17T12:11:03.871Z,25.84
2017-07-17T12:16:01.904Z,25.14
2017-07-17T12:20:57.566Z,25.21
2017-07-17T12:25:53.903Z,25.14
2017-07-17T12:30:50.787Z,25.32
2017-07-17T12:35:46.440Z,25.06
2017-07-17T12:40:41.943Z,23.87
2017-07-17T12:45:39.002Z,25.11
2017-07-17T12:50:35.916Z,25.66
2017-07-17T12:55:31.673Z,25.90
2017-07-17T13:00:27.965Z,25.63
2017-07-17T13:05:29.846Z,26.03
2017-07-17T13:10:25.887Z,26.33
2017-07-17T13:15:23.025Z,24.69
2017-07-17T13:20:18.735Z,24.86
2017-07-17T13:25:13.729Z,24.16
2017-07-17T13:30:10.294Z,25.28
2017-07-17T13:35:05.978Z,25.17
2017-07-17T13:40:01.832Z,25.18
2017-07-17T13:44:58.023Z,25.36
2017-07-17T13:49:54.142Z,25.31
2017-07-17T13:54:51.107Z,25.69
2017-07-17T13:59:46.900Z,25.10
2017-07-17T14:04:43.747Z,25.18
2017-07-17T14:09:39.786Z,24.58
2017-07-17T14:14:35.041Z,24.05
2017-07-17T14:19:29.994Z,24.16
2017-07-17T14:24:24.764Z,23.56
2017-07-17T14:29:20.748Z,23.59
2017-07-17T14:34:15.681Z,23.40
2017-07-17T14:39:12.128Z,23.34
2017-07-17T14:44:08.161Z,23.25
2017-07-17T14:49:04.912Z,23.51
2017-07-17T14:54:01.521Z,23.50
2017-07-17T14:58:58.129Z,23.46
2017-07-17T15:03:54.689Z,23.31
2017-07-17T15:08:50.232Z,23.27
2017-07-17T15:13:46.380Z,23.28
2017-07-17T15:18:42.092Z,23.43
2017-07-17T15:23:39.601Z,23.40
2017-07-17T15:28:35.469Z,23.28
2017-07-17T15:33:31.417Z,23.28
2017-07-17T15:38:27.203Z,23.37
2017-07-17T15:43:24.468Z,23.28
2017-07-17T15:48:20.017Z,23.15
2017-07-17T15:53:15.833Z,23.27
2017-07-17T15:58:12.948Z,23.39
2017-07-17T16:03:09.450Z,23.48
2017-07-17T16:08:05.538Z,23.41
2017-07-17T16:13:02.568Z,23.34
2017-07-17T16:17:57.858Z,23.09
2017-07-17T16:22:53.680Z,23.15
2017-07-17T16:27:50.556Z,23.12
2017-07-17T16:32:46.505Z,23.15
2017-07-17T16:37:42.448Z,23.06
2017-07-17T16:42:38.465Z,23.12
2017-07-17T16:47:35.351Z,23.12
2017-07-17T16:52:30.836Z,23.24
2017-07-17T16:57:28.626Z,23.09
2017-07-17T17:02:24.415Z,23.03
2017-07-17T17:07:20.412Z,23.12
2017-07-17T17:12:16.233Z,23.08
2017-07-17T17:17:13.209Z,23.00
2017-07-17T17:22:11.258Z,22.94
2017-07-17T17:27:07.642Z,22.98
2017-07-17T17:32:03.477Z,23.02
2017-07-17T17:36:59.495Z,23.03
2017-07-17T17:41:55.437Z,23.02
2017-07-17T17:46:52.287Z,22.88
2017-07-17T17:51:48.848Z,22.90
2017-07-17T17:56:44.624Z,22.98
2017-07-17T18:01:40.363Z,22.87
2017-07-17T18:06:36.900Z,22.96
2017-07-17T18:11:32.980Z,22.84
2017-07-17T18:16:28.909Z,22.70
2017-07-17T18:21:24.793Z,22.63
2017-07-17T18:26:21.593Z,22.50
2017-07-17T18:31:17.254Z,22.48
2017-07-17T18:36:13.178Z,22.35
2017-07-17T18:41:10.132Z,22.23
2017-07-17T18:46:05.776Z,22.23
2017-07-17T18:51:01.859Z,22.17
2017-07-17T18:55:58.855Z,22.02
2017-07-17T19:00:54.183Z,21.76
2017-07-17T19:05:51.077Z,21.77
2017-07-17T19:10:47.536Z,21.66
2017-07-17T19:15:44.283Z,21.57
2017-07-17T19:20:39.703Z,21.39
2017-07-17T19:25:35.475Z,21.37
2017-07-17T19:30:32.453Z,21.20
2017-07-17T19:35:29.087Z,20.97
2017-07-17T19:40:25.168Z,20.97
2017-07-17T19:45:21.821Z,20.97
2017-07-17T19:50:17.459Z,20.82
2017-07-17T19:55:14.242Z,20.77
2017-07-17T20:00:09.751Z,20.59
2017-07-17T20:05:05.608Z,20.52
2017-07-17T20:10:02.680Z,20.34
2017-07-17T20:14:59.432Z,20.24
2017-07-17T20:19:55.068Z,20.26
2017-07-17T20:24:50.887Z,20.10
2017-07-17T20:29:47.714Z,19.95
2017-07-17T20:34:43.241Z,19.99
2017-07-17T20:39:39.012Z,19.88
2017-07-17T20:44:35.887Z,19.71
2017-07-17T20:49:32.759Z,19.56
2017-07-17T20:54:28.213Z,19.56
2017-07-17T20:59:24.947Z,19.49
2017-07-17T21:04:21.582Z,19.45
2017-07-17T21:09:17.253Z,19.47
2017-07-17T21:14:13.124Z,19.26
2017-07-17T21:19:09.866Z,19.15
2017-07-17T21:24:05.413Z,19.12
2017-07-17T21:29:01.429Z,19.12
2017-07-17T21:33:57.167Z,19.00
2017-07-17T21:38:54.365Z,18.98
2017-07-17T21:43:50.318Z,18.81
2017-07-17T21:48:46.169Z,18.80
2017-07-17T21:53:43.289Z,18.80
2017-07-17T21:58:39.528Z,18.73
2017-07-17T22:03:35.645Z,18.70
2017-07-17T22:08:32.755Z,18.63
2017-07-17T22:13:28.195Z,18.53
2017-07-17T22:18:24.328Z,18.38
2017-07-17T22:23:21.075Z,18.52
2017-07-17T22:28:18.180Z,18.28
2017-07-17T22:33:14.624Z,18.08
2017-07-17T22:38:11.150Z,17.90
2017-07-17T22:43:06.591Z,17.72
2017-07-17T22:48:02.492Z,17.56
2017-07-17T22:52:58.386Z,17.48
2017-07-17T22:57:55.066Z,17.30
2017-07-17T23:02:50.472Z,17.33
2017-07-17T23:07:46.107Z,17.06
2017-07-17T23:12:42.546Z,17.04
2017-07-17T23:17:38.333Z,17.02
2017-07-17T23:22:34.249Z,17.02
2017-07-17T23:27:30.089Z,16.83
2017-07-17T23:32:26.936Z,16.76
2017-07-17T23:37:23.455Z,16.74
2017-07-17T23:42:19.155Z,16.81
2017-07-17T23:47:15.854Z,16.65
2017-07-17T23:52:12.454Z,16.60
2017-07-17T23:57:09.338Z,16.53
